createdAt,value
2017-11-25T00:00:44.711Z,5.70
2017-11-25T00:03:13.025Z,5.57
2017-11-25T00:05:40.561Z,4.77
2017-11-25T00:08:08.096Z,5.60
2017-11-25T00:10:36.427Z,4.30
2017-11-25T00:13:03.957Z,4.50
2017-11-25T00:15:31.512Z,3.60
2017-11-25T00:17:59.046Z,4.00
2017-11-25T00:20:26.599Z,4.33
2017-11-25T00:22:54.140Z,4.17
2017-11-25T00:25:21.698Z,4.00
2017-11-25T00:27:49.222Z,4.30
2017-11-25T00:30:16.776Z,3.87
2017-11-25T00:32:44.311Z,3.77
2017-11-25T00:35:11.864Z,3.50
2017-11-25T00:37:39.388Z,4.50
2017-11-25T00:40:06.969Z,4.40
2017-11-25T00:42:34.510Z,5.10
2017-11-25T00:45:02.090Z,4.27
2017-11-25T00:47:29.641Z,4.00
2017-11-25T00:49:57.227Z,4.73
2017-11-25T00:52:25.560Z,4.87
2017-11-25T00:54:53.133Z,4.77
2017-11-25T00:57:20.685Z,5.27
2017-11-25T00:59:48.239Z,4.60
2017-11-25T01:02:15.774Z,5.17
2017-11-25T01:04:43.351Z,6.40
2017-11-25T01:07:10.886Z,6.03
2017-11-25T01:09:38.459Z,5.37
2017-11-25T01:12:06.002Z,6.03
2017-11-25T01:14:34.333Z,6.07
2017-11-25T01:17:01.882Z,6.03
2017-11-25T01:19:29.444Z,6.20
2017-11-25T01:21:56.985Z,6.57
2017-11-25T01:24:24.554Z,6.07
2017-11-25T01:26:52.093Z,5.97
2017-11-25T01:29:19.657Z,7.10
2017-11-25T01:31:47.191Z,6.80
2017-11-25T01:34:15.524Z,7.00
2017-11-25T01:36:43.057Z,7.40
2017-11-25T01:39:10.610Z,7.80
2017-11-25T01:41:38.162Z,7.80
2017-11-25T01:44:05.735Z,7.53
2017-11-25T01:46:33.279Z,7.70
2017-11-25T01:49:01.604Z,8.20
2017-11-25T01:51:29.148Z,8.87
2017-11-25T01:53:56.711Z,8.90
2017-11-25T01:56:24.256Z,9.60
2017-11-25T01:58:51.812Z,8.03
2017-11-25T02:01:19.343Z,7.77
2017-11-25T02:03:47.683Z,8.80
2017-11-25T02:06:15.240Z,9.07
2017-11-25T02:08:42.823Z,9.67
2017-11-25T02:11:10.368Z,8.50
2017-11-25T02:13:37.939Z,9.07
2017-11-25T02:16:05.479Z,9.87
2017-11-25T02:18:33.019Z,10.60
2017-11-25T02:21:00.595Z,10.97
2017-11-25T02:23:28.131Z,10.33
2017-11-25T02:25:55.704Z,10.90
2017-11-25T02:28:23.250Z,11.07
2017-11-25T02:30:50.816Z,11.30
2017-11-25T02:33:18.357Z,12.17
2017-11-25T02:35:45.925Z,12.63
2017-11-25T02:38:13.479Z,12.20
2017-11-25T02:40:41.051Z,12.57
2017-11-25T02:43:08.676Z,13.57
2017-11-25T02:45:36.246Z,12.37
2017-11-25T02:48:03.793Z,12.20
2017-11-25T02:50:31.368Z,12.23
2017-11-25T02:52:59.668Z,11.10
2017-11-25T02:55:27.238Z,11.60
2017-11-25T02:57:54.771Z,11.90
2017-11-25T03:00:22.327Z,12.53
2017-11-25T03:02:49.882Z,12.30
2017-11-25T03:05:18.208Z,12.97
2017-11-25T03:07:45.740Z,12.83
2017-11-25T03:10:13.307Z,13.17
2017-11-25T03:12:40.867Z,12.73
2017-11-25T03:15:08.428Z,13.87
2017-11-25T03:17:35.975Z,13.03
2017-11-25T03:20:03.547Z,14.63
2017-11-25T03:22:31.091Z,13.10
2017-11-25T03:24:58.659Z,14.33
2017-11-25T03:27:26.202Z,13.90
2017-11-25T03:33:03.855Z,13.63
2017-11-25T03:35:31.435Z,14.20
2017-11-25T03:37:58.974Z,15.30
2017-11-25T03:40:26.534Z,14.63
2017-11-25T03:42:54.071Z,14.20
2017-11-25T03:45:21.633Z,12.60
2017-11-25T03:47:49.165Z,13.93
2017-11-25T03:50:17.495Z,14.63
2017-11-25T03:52:45.031Z,14.80
2017-11-25T03:55:12.584Z,14.90
2017-11-25T03:57:40.120Z,14.83
2017-11-25T04:00:08.452Z,16.20
2017-11-25T04:02:35.989Z,16.10
2017-11-25T04:05:03.555Z,16.60
2017-11-25T04:07:31.089Z,16.20
2017-11-25T04:09:58.665Z,16.60
2017-11-25T04:12:26.199Z,13.67
2017-11-25T04:14:54.544Z,15.80
2017-11-25T04:17:22.083Z,13.30
2017-11-25T04:19:49.652Z,11.03
2017-11-25T04:22:17.191Z,11.00
2017-11-25T04:24:44.748Z,9.93
2017-11-25T04:27:12.281Z,8.50
2017-11-25T04:29:40.601Z,8.07
2017-11-25T04:32:08.143Z,8.80
2017-11-25T04:34:35.695Z,8.33
2017-11-25T04:37:03.226Z,6.83
2017-11-25T04:39:30.788Z,7.70
2017-11-25T04:41:59.100Z,7.00
2017-11-25T04:44:26.664Z,7.17
2017-11-25T04:46:54.196Z,6.67
2017-11-25T04:49:22.517Z,7.93
2017-11-25T04:51:50.052Z,7.07
2017-11-25T04:54:17.613Z,7.53
2017-11-25T04:56:45.142Z,6.70
2017-11-25T04:59:13.492Z,7.77
2017-11-25T05:01:41.060Z,7.30
2017-11-25T05:04:08.623Z,8.33
2017-11-25T05:06:36.186Z,7.60
2017-11-25T05:09:03.729Z,9.30
2017-11-25T05:11:31.287Z,8.80
2017-11-25T05:13:58.825Z,8.53
2017-11-25T05:16:26.380Z,8.80
2017-11-25T05:18:53.924Z,8.70
2017-11-25T05:21:21.497Z,10.33
2017-11-25T05:23:49.035Z,10.10
2017-11-25T05:26:17.359Z,9.07
2017-11-25T05:28:44.895Z,9.87
2017-11-25T05:31:12.450Z,10.57
2017-11-25T05:33:39.984Z,9.80
2017-11-25T05:36:08.318Z,9.27
2017-11-25T05:38:35.882Z,8.90
2017-11-25T05:41:04.188Z,9.77
2017-11-25T05:43:31.712Z,9.97
2017-11-25T05:45:59.267Z,9.07
2017-11-25T05:48:26.803Z,9.23
2017-11-25T05:50:54.364Z,8.50
2017-11-25T05:53:21.900Z,8.80
2017-11-25T05:55:50.227Z,8.23
2017-11-25T05:58:17.760Z,8.10
2017-11-25T06:00:45.302Z,7.90
2017-11-25T06:03:13.626Z,10.07
2017-11-25T06:05:41.166Z,9.10
2017-11-25T06:08:08.719Z,10.30
2017-11-25T06:10:36.252Z,9.07
2017-11-25T06:13:04.567Z,8.23
2017-11-25T06:15:32.100Z,8.77
2017-11-25T06:17:59.649Z,8.70
2017-11-25T06:20:27.935Z,9.53
2017-11-25T06:22:55.491Z,10.37
2017-11-25T06:25:23.801Z,9.37
2017-11-25T06:27:51.352Z,7.50
2017-11-25T06:51:28.511Z,7.60
2017-11-25T06:53:56.068Z,8.20
2017-11-25T06:56:23.611Z,8.00
2017-11-25T06:58:51.182Z,7.60
2017-11-25T07:01:18.724Z,8.67
2017-11-25T07:03:46.289Z,7.60
2017-11-25T07:06:13.827Z,7.90
2017-11-25T07:08:41.387Z,8.43
2017-11-25T07:11:08.917Z,7.27
2017-11-25T07:13:36.477Z,7.93
2017-11-25T07:16:04.028Z,8.03
2017-11-25T07:18:31.608Z,7.90
2017-11-25T07:20:59.936Z,7.70
2017-11-25T07:23:27.496Z,9.00
2017-11-25T07:25:55.054Z,10.33
2017-11-25T07:28:22.618Z,9.20
2017-11-25T07:30:50.168Z,9.60
2017-11-25T07:33:17.740Z,7.00
2017-11-25T07:35:45.311Z,8.17
2017-11-25T07:38:12.866Z,9.47
2017-11-25T07:40:40.419Z,8.77
2017-11-25T07:43:07.967Z,9.70
2017-11-25T07:45:35.516Z,9.57
2017-11-25T07:48:03.056Z,9.10
2017-11-25T07:50:30.619Z,9.27
2017-11-25T07:52:58.160Z,9.60
2017-11-25T07:55:26.490Z,7.90
2017-11-25T07:57:54.021Z,7.93
2017-11-25T08:00:21.581Z,6.97
2017-11-25T08:02:49.117Z,6.17
2017-11-25T08:05:17.463Z,7.93
2017-11-25T08:07:44.991Z,6.27
2017-11-25T08:10:12.545Z,6.60
2017-11-25T08:12:40.080Z,7.13
2017-11-25T08:15:08.396Z,5.30
2017-11-25T08:17:35.927Z,6.07
2017-11-25T08:20:03.481Z,4.53
2017-11-25T08:22:31.019Z,5.33
2017-11-25T08:24:58.579Z,5.47
2017-11-25T08:27:26.113Z,5.87
2017-11-25T08:29:53.686Z,6.23
2017-11-25T08:32:21.232Z,6.50
2017-11-25T08:34:49.565Z,6.13
2017-11-25T08:37:17.119Z,7.00
2017-11-25T08:39:45.465Z,7.13
2017-11-25T08:42:13.121Z,6.60
2017-11-25T08:44:40.715Z,7.10
2017-11-25T08:47:09.015Z,7.00
2017-11-25T08:49:36.557Z,7.50
2017-11-25T08:52:04.123Z,7.33
2017-11-25T08:54:31.663Z,7.83
2017-11-25T08:56:59.992Z,7.13
2017-11-25T08:59:27.545Z,8.03
2017-11-25T09:01:55.123Z,8.43
2017-11-25T09:04:22.671Z,8.57
2017-11-25T09:06:50.239Z,9.03
2017-11-25T09:09:17.779Z,9.30
2017-11-25T09:11:45.343Z,9.53
2017-11-25T09:14:12.898Z,10.03
2017-11-25T09:16:40.463Z,9.53
2017-11-25T09:19:08.003Z,9.53
2017-11-25T09:21:35.562Z,9.60
2017-11-25T09:24:03.100Z,11.40
2017-11-25T09:26:31.423Z,9.93
2017-11-25T09:28:58.988Z,9.10
2017-11-25T09:31:26.552Z,11.00
2017-11-25T09:33:54.082Z,8.97
2017-11-25T09:36:21.644Z,9.57
2017-11-25T09:38:49.176Z,8.97
2017-11-25T09:41:17.567Z,10.00
2017-11-25T09:43:45.116Z,10.77
2017-11-25T09:46:13.459Z,9.53
2017-11-25T09:48:41.011Z,11.20
2017-11-25T09:51:08.626Z,9.03
2017-11-25T09:53:36.172Z,9.20
2017-11-25T09:56:04.508Z,9.47
2017-11-25T09:58:32.035Z,9.80
2017-11-25T10:00:59.596Z,10.90
2017-11-25T10:03:27.142Z,10.70
2017-11-25T10:05:55.470Z,9.13
2017-11-25T10:08:23.018Z,11.93
2017-11-25T10:10:51.043Z,10.03
2017-11-25T10:13:18.613Z,9.40
2017-11-25T10:15:46.648Z,7.77
2017-11-25T10:18:14.196Z,9.37
2017-11-25T10:20:41.758Z,9.67
2017-11-25T10:23:09.280Z,8.57
2017-11-25T10:25:36.839Z,7.97
2017-11-25T10:28:04.394Z,8.40
2017-11-25T10:30:31.935Z,8.97
2017-11-25T10:33:00.277Z,9.10
2017-11-25T10:35:28.008Z,8.77
2017-11-25T10:37:55.571Z,6.83
2017-11-25T10:40:23.101Z,7.27
2017-11-25T10:42:52.077Z,7.50
2017-11-25T10:45:20.763Z,7.17
2017-11-25T10:47:48.401Z,8.50
2017-11-25T10:50:15.928Z,8.43
2017-11-25T10:52:43.488Z,8.80
2017-11-25T10:55:11.032Z,10.00
2017-11-25T10:57:38.605Z,8.47
2017-11-25T11:00:06.154Z,9.37
2017-11-25T11:02:33.780Z,9.40
2017-11-25T11:05:01.308Z,8.90
2017-11-25T11:07:28.871Z,9.17
2017-11-25T11:09:56.636Z,8.37
2017-11-25T11:12:24.191Z,7.03
2017-11-25T11:14:51.721Z,6.70
2017-11-25T11:17:19.275Z,7.17
2017-11-25T11:19:46.809Z,6.97
2017-11-25T11:22:15.134Z,8.87
2017-11-25T11:24:42.671Z,10.67
2017-11-25T11:27:10.238Z,10.93
2017-11-25T11:29:37.784Z,11.10
2017-11-25T11:32:05.335Z,6.80
2017-11-25T11:34:33.626Z,6.07
2017-11-25T11:37:01.192Z,5.90
2017-11-25T11:39:28.714Z,6.00
2017-11-25T11:41:56.284Z,5.30
2017-11-25T11:44:24.587Z,5.00
2017-11-25T11:46:52.140Z,5.07
2017-11-25T11:49:19.675Z,5.30
2017-11-25T11:51:47.995Z,5.13
2017-11-25T11:54:15.530Z,5.20
2017-11-25T11:56:43.111Z,4.40
2017-11-25T11:59:10.653Z,4.50
2017-11-25T12:01:38.205Z,4.20
2017-11-25T12:04:06.499Z,3.93
2017-11-25T12:06:34.061Z,3.50
2017-11-25T12:09:01.593Z,3.73
2017-11-25T12:11:29.916Z,3.97
2017-11-25T12:13:57.447Z,3.40
2017-11-25T12:16:25.769Z,3.00
2017-11-25T12:18:53.284Z,3.33
2017-11-25T12:21:20.845Z,2.80
2017-11-25T12:23:48.372Z,3.53
2017-11-25T12:26:15.920Z,3.80
2017-11-25T12:28:43.452Z,3.70
2017-11-25T12:31:11.007Z,3.87
2017-11-25T12:33:38.544Z,4.60
2017-11-25T12:36:06.118Z,4.20
2017-11-25T12:38:33.680Z,5.33
2017-11-25T12:41:01.219Z,4.93
2017-11-25T12:43:28.775Z,5.17
2017-11-25T12:45:57.085Z,4.90
2017-11-25T12:48:25.408Z,5.20
2017-11-25T12:50:53.756Z,3.53
2017-11-25T12:53:21.321Z,4.20
2017-11-25T12:55:48.863Z,4.10
2017-11-25T12:58:16.430Z,3.40
2017-11-25T13:00:43.960Z,4.20
2017-11-25T13:03:11.513Z,4.80
2017-11-25T13:05:39.052Z,4.30
2017-11-25T13:08:07.392Z,3.67
2017-11-25T13:10:34.925Z,4.37
2017-11-25T13:13:02.488Z,3.90
2017-11-25T13:15:30.022Z,3.87
2017-11-25T13:17:58.350Z,2.10
2017-11-25T13:20:25.884Z,2.67
2017-11-25T13:22:53.437Z,2.80
2017-11-25T13:25:20.978Z,2.27
2017-11-25T13:27:49.310Z,2.30
2017-11-25T13:30:16.849Z,2.90
2017-11-25T13:32:44.393Z,2.60
2017-11-25T13:35:11.920Z,3.07
2017-11-25T13:37:39.490Z,2.53
2017-11-25T13:40:07.789Z,3.20
2017-11-25T13:42:35.351Z,2.83
2017-11-25T13:45:02.881Z,3.17
2017-11-25T13:47:30.486Z,2.77
2017-11-25T13:49:58.012Z,3.67
2017-11-25T13:52:26.341Z,3.70
2017-11-25T13:54:53.862Z,5.40
2017-11-25T13:57:21.417Z,6.70
2017-11-25T13:59:48.961Z,7.10
2017-11-25T14:02:17.301Z,8.40
2017-11-25T14:04:44.857Z,8.13
2017-11-25T14:07:12.429Z,9.13
2017-11-25T14:09:39.976Z,10.23
2017-11-25T14:12:07.548Z,8.70
2017-11-25T14:14:35.125Z,7.53
2017-11-25T14:17:03.471Z,6.47
2017-11-25T14:19:31.024Z,7.50
2017-11-25T14:21:58.596Z,6.80
2017-11-25T14:24:26.151Z,6.67
2017-11-25T14:26:53.706Z,6.07
2017-11-25T14:29:21.276Z,5.80
2017-11-25T14:31:48.856Z,6.30
2017-11-25T14:34:16.399Z,5.53
2017-11-25T14:36:43.957Z,6.57
2017-11-25T14:39:11.532Z,5.67
2017-11-25T14:41:39.074Z,5.50
2017-11-25T14:44:06.639Z,5.20
2017-11-25T14:46:34.198Z,6.50
2017-11-25T14:49:01.772Z,5.73
2017-11-25T14:51:29.308Z,5.30
2017-11-25T14:53:56.880Z,5.83
2017-11-25T14:56:24.421Z,5.70
2017-11-25T14:58:51.994Z,6.30
2017-11-25T15:01:19.533Z,6.27
2017-11-25T15:03:47.098Z,6.00
2017-11-25T15:06:14.638Z,5.90
2017-11-25T15:08:42.204Z,6.20
2017-11-25T15:11:09.739Z,6.07
2017-11-25T15:13:38.079Z,6.20
2017-11-25T15:16:05.607Z,6.40
2017-11-25T15:18:33.170Z,5.70
2017-11-25T15:21:00.693Z,5.77
2017-11-25T15:23:29.025Z,6.30
2017-11-25T15:25:56.567Z,6.40
2017-11-25T15:28:24.902Z,5.70
2017-11-25T15:30:53.212Z,5.50
2017-11-25T15:33:20.774Z,6.70
2017-11-25T15:35:48.323Z,6.03
2017-11-25T15:38:15.882Z,5.83
2017-11-25T15:40:43.421Z,5.60
2017-11-25T15:43:11.748Z,6.60
2017-11-25T15:45:39.292Z,6.93
2017-11-25T15:48:06.848Z,6.07
2017-11-25T15:50:34.382Z,6.30
2017-11-25T15:53:02.710Z,6.90
2017-11-25T15:55:30.283Z,6.77
2017-11-25T15:57:57.829Z,6.77
2017-11-25T16:00:25.361Z,6.37
2017-11-25T16:02:56.387Z,6.63
2017-11-25T16:05:23.919Z,6.40
2017-11-25T16:07:51.484Z,8.03
2017-11-25T16:10:19.012Z,6.20
2017-11-25T16:12:46.562Z,5.77
2017-11-25T16:15:14.104Z,6.40
2017-11-25T16:17:41.669Z,6.20
2017-11-25T16:20:09.205Z,6.50
2017-11-25T16:22:37.531Z,7.70
2017-11-25T16:25:05.075Z,9.07
2017-11-25T16:27:32.638Z,9.57
2017-11-25T16:30:00.179Z,9.73
2017-11-25T16:32:27.754Z,10.07
2017-11-25T16:34:55.289Z,10.60
2017-11-25T16:37:22.859Z,11.37
2017-11-25T16:39:50.394Z,10.50
2017-11-25T16:42:18.734Z,11.40
2017-11-25T16:44:46.273Z,10.57
2017-11-25T16:47:13.804Z,10.60
2017-11-25T16:49:41.364Z,10.10
2017-11-25T16:52:08.896Z,9.60
2017-11-25T16:54:36.460Z,10.43
2017-11-25T16:57:04.761Z,9.93
2017-11-25T16:59:32.321Z,9.33
2017-11-25T17:02:00.736Z,8.80
2017-11-25T17:04:28.434Z,9.17
2017-11-25T17:06:56.030Z,10.17
2017-11-25T17:09:23.587Z,9.00
2017-11-25T17:11:51.154Z,12.73
2017-11-25T17:14:18.720Z,12.10
2017-11-25T17:16:46.271Z,13.07
2017-11-25T17:19:13.856Z,14.60
2017-11-25T17:21:41.396Z,16.77
2017-11-25T17:24:08.971Z,14.93
2017-11-25T17:26:36.528Z,12.60
2017-11-25T17:29:04.089Z,12.40
2017-11-25T17:31:31.627Z,10.90
2017-11-25T17:33:59.195Z,10.33
2017-11-25T17:36:26.737Z,10.43
2017-11-25T17:38:54.324Z,10.00
2017-11-25T17:41:21.849Z,9.27
2017-11-25T17:43:50.167Z,9.90
2017-11-25T17:46:17.712Z,9.17
2017-11-25T17:48:45.275Z,9.03
2017-11-25T17:51:12.815Z,10.03
2017-11-25T17:53:41.147Z,10.03
2017-11-25T17:56:08.682Z,9.90
2017-11-25T17:58:36.241Z,9.87
2017-11-25T18:01:03.776Z,9.60
2017-11-25T18:03:32.097Z,8.30
2017-11-25T18:05:59.635Z,8.33
2017-11-25T18:08:27.192Z,8.30
2017-11-25T18:10:54.724Z,8.50
2017-11-25T18:13:22.286Z,8.60
2017-11-25T18:15:50.580Z,8.97
2017-11-25T18:18:18.141Z,8.20
2017-11-25T18:20:45.670Z,8.50
2017-11-25T18:23:14.004Z,7.77
2017-11-25T18:25:41.533Z,9.33
2017-11-25T18:28:09.096Z,9.17
2017-11-25T18:30:36.636Z,8.60
2017-11-25T18:33:04.964Z,9.23
2017-11-25T18:35:32.496Z,9.00
2017-11-25T18:38:00.054Z,9.10
2017-11-25T18:40:27.596Z,8.97
2017-11-25T18:42:55.922Z,7.90
2017-11-25T18:45:23.451Z,7.20
2017-11-25T18:47:51.785Z,8.00
2017-11-25T18:50:19.357Z,7.80
2017-11-25T18:52:47.667Z,6.40
2017-11-25T18:55:15.235Z,6.60
2017-11-25T18:57:42.780Z,5.43
2017-11-25T19:00:10.344Z,6.37
2017-11-25T19:02:37.881Z,6.13
2017-11-25T19:05:06.201Z,7.80
2017-11-25T19:07:33.734Z,7.60
2017-11-25T19:10:01.288Z,6.87
2017-11-25T19:12:28.828Z,6.33
2017-11-25T19:14:57.159Z,5.13
2017-11-25T19:17:24.679Z,5.53
2017-11-25T19:19:53.020Z,4.63
2017-11-25T19:22:20.570Z,4.87
2017-11-25T19:24:48.124Z,4.63
2017-11-25T19:27:15.645Z,4.40
2017-11-25T19:29:43.212Z,4.47
2017-11-25T19:32:10.773Z,4.60
2017-11-25T19:34:38.339Z,6.03
2017-11-25T19:37:05.874Z,4.53
2017-11-25T19:39:34.200Z,5.03
2017-11-25T19:42:01.788Z,5.47
2017-11-25T19:44:30.250Z,5.43
2017-11-25T19:46:57.883Z,4.20
2017-11-25T19:49:25.540Z,5.70
2017-11-25T19:51:53.077Z,5.90
2017-11-25T19:54:20.740Z,5.67
2017-11-25T19:56:49.092Z,5.83
2017-11-25T19:59:16.661Z,5.83
2017-11-25T20:01:44.964Z,6.97
2017-11-25T20:04:12.672Z,7.40
2017-11-25T20:06:40.306Z,7.60
2017-11-25T20:09:07.959Z,7.17
2017-11-25T20:11:35.521Z,6.27
2017-11-25T20:14:03.240Z,7.10
2017-11-25T20:16:30.897Z,8.90
2017-11-25T20:18:58.516Z,8.77
2017-11-25T20:21:26.109Z,8.60
2017-11-25T20:23:53.667Z,9.30
2017-11-25T20:26:21.304Z,8.40
2017-11-25T20:28:48.880Z,9.53
2017-11-25T20:31:16.530Z,9.80
2017-11-25T20:33:44.208Z,9.57
2017-11-25T20:36:11.824Z,11.30
2017-11-25T20:38:39.455Z,10.93
2017-11-25T20:41:07.814Z,10.10
2017-11-25T20:43:35.417Z,11.70
2017-11-25T20:46:03.750Z,10.10
2017-11-25T20:48:31.405Z,10.70
2017-11-25T20:50:59.036Z,11.30
2017-11-25T20:53:26.652Z,10.37
2017-11-25T20:55:54.991Z,11.27
2017-11-25T20:58:22.559Z,12.03
2017-11-25T21:00:50.241Z,11.10
2017-11-25T21:03:17.897Z,10.67
2017-11-25T21:05:45.508Z,11.10
2017-11-25T21:08:13.208Z,12.80
2017-11-25T21:10:41.573Z,11.60
2017-11-25T21:13:09.147Z,12.30
2017-11-25T21:15:36.865Z,12.00
2017-11-25T21:18:05.275Z,10.87
2017-11-25T21:20:32.986Z,12.00
2017-11-25T21:23:00.609Z,11.60
2017-11-25T21:25:28.272Z,11.90
2017-11-25T21:27:55.883Z,10.83
2017-11-25T21:30:23.601Z,11.73
2017-11-25T21:32:51.283Z,13.47
2017-11-25T21:35:18.927Z,13.20
2017-11-25T21:37:46.564Z,12.57
2017-11-25T21:40:14.299Z,12.20
2017-11-25T21:42:41.980Z,12.50
2017-11-25T21:45:09.629Z,12.70
2017-11-25T21:47:37.981Z,11.97
2017-11-25T21:50:06.440Z,11.10
2017-11-25T21:52:34.019Z,12.53
2017-11-25T21:55:01.695Z,11.50
2017-11-25T21:57:29.316Z,12.90
2017-11-25T21:59:56.868Z,12.90
2017-11-25T22:02:24.429Z,13.00
2017-11-25T22:04:52.735Z,12.37
2017-11-25T22:07:20.320Z,13.87
2017-11-25T22:09:47.876Z,11.43
2017-11-25T22:12:15.442Z,12.57
2017-11-25T22:14:42.990Z,12.73
2017-11-25T22:17:10.561Z,13.30
2017-11-25T22:19:38.150Z,12.67
2017-11-25T22:22:05.769Z,12.23
2017-11-25T22:24:33.323Z,11.50
2017-11-25T22:27:00.919Z,13.40
2017-11-25T22:29:29.259Z,12.83
2017-11-25T22:32:02.628Z,12.50
2017-11-25T22:34:30.173Z,12.00
2017-11-25T22:36:57.733Z,11.93
2017-11-25T22:39:25.273Z,12.47
2017-11-25T22:41:53.597Z,12.00
2017-11-25T22:44:21.132Z,10.97
2017-11-25T22:46:48.696Z,10.67
2017-11-25T22:49:16.232Z,10.70
2017-11-25T22:51:44.561Z,11.67
2017-11-25T22:54:12.098Z,10.03
2017-11-25T22:56:39.663Z,10.37
2017-11-25T22:59:07.194Z,9.97
2017-11-25T23:01:34.769Z,9.40
2017-11-25T23:04:02.300Z,9.50
2017-11-25T23:06:30.625Z,9.37
2017-11-25T23:08:58.161Z,8.20
2017-11-25T23:11:25.721Z,9.60
2017-11-25T23:13:53.259Z,10.27
2017-11-25T23:16:21.567Z,9.63
2017-11-25T23:18:49.120Z,9.90
2017-11-25T23:21:16.652Z,9.87
2017-11-25T23:23:44.971Z,8.93
2017-11-25T23:26:12.504Z,9.27
2017-11-25T23:28:40.076Z,10.30
2017-11-25T23:31:07.608Z,10.10
2017-11-25T23:33:35.950Z,8.27
2017-11-25T23:36:03.516Z,9.17
2017-11-25T23:38:31.079Z,9.50
2017-11-25T23:40:58.622Z,7.90
2017-11-25T23:43:26.197Z,9.00
2017-11-25T23:45:53.753Z,9.00
2017-11-25T23:48:21.331Z,9.43
2017-11-25T23:50:58.225Z,8.87
2017-11-25T23:53:26.576Z,9.30
2017-11-25T23:55:54.127Z,9.30
2017-11-25T23:58:21.692Z,9.43
